This is the latest recevied weather packets stored in our database for station/object KC3VCX. If no packets are shown the sender has not sent any weather packets the latest 10 day(s).
| Time | Temp. | Humidity | Pressure | Rain* | Wind** | Luminosity | Snow |
|---|---|---|---|---|---|---|---|
| 1778016179 | 20.56° C | 63% | 1010.1 hPa | 0 mm | - | 167 W/m² | - |
| 1778015875 | 20.56° C | 63% | 1010.3 hPa | 0 mm | - | 181 W/m² | - |
| 1778015573 | 20° C | 64% | 1010.2 hPa | 0 mm | - | 301 W/m² | - |
| 1778015269 | 20° C | 65% | 1010.2 hPa | 0 mm | - | 224 W/m² | - |
| 1778014966 | 18.89° C | 66% | 1010.3 hPa | 0 mm | - | 324 W/m² | - |
| 1778014663 | 18.89° C | 68% | 1010.3 hPa | 0 mm | - | 234 W/m² | - |
| 1778014362 | 18.89° C | 67% | 1010.6 hPa | 0 mm | - | 165 W/m² | - |
| 1778014058 | 20.56° C | 61% | 1010.4 hPa | 0 mm | - | 50 W/m² | - |
| 1778013756 | 21.11° C | 55% | 1010.4 hPa | 0 mm | - | 52 W/m² | - |
| 1778013452 | 21.67° C | 55% | 1010.1 hPa | 0 mm | - | 55 W/m² | - |
| 1778013149 | 21.67° C | 55% | 1010 hPa | 0 mm | - | 108 W/m² | - |
| 1778012845 | 21.11° C | 55% | 1010.2 hPa | 0 mm | - | 136 W/m² | - |
| 1778012541 | 21.67° C | 55% | 1010.3 hPa | 0 mm | - | 65 W/m² | - |
| 1778012238 | 21.67° C | 55% | 1010.2 hPa | 0 mm | - | 39 W/m² | - |
| 1778011936 | 21.67° C | 55% | 1010.1 hPa | 0 mm | - | 66 W/m² | - |
| 1778011634 | 21.67° C | 53% | 1010.3 hPa | 0 mm | - | 50 W/m² | - |
| 1778011331 | 22.22° C | 53% | 1010.1 hPa | 0 mm | - | 108 W/m² | - |
| 1778011026 | 22.22° C | 52% | 1010.3 hPa | 0 mm | - | 127 W/m² | - |
| 1778010724 | 22.22° C | 52% | 1010.2 hPa | 0 mm | - | 135 W/m² | - |
| 1778010421 | 22.22° C | 52% | 1010.4 hPa | 0 mm | - | 127 W/m² | - |
| 1778010117 | 22.22° C | 54% | 1010.5 hPa | 0 mm | - | 155 W/m² | - |
| 1778009813 | 22.22° C | 52% | 1010.3 hPa | 0 mm | - | 177 W/m² | - |
| 1778009511 | 22.22° C | 52% | 1010.4 hPa | 0 mm | - | 205 W/m² | - |
| 1778009209 | 22.22° C | 51% | 1010.3 hPa | 0 mm | - | 188 W/m² | - |
| 1778008907 | 22.22° C | 52% | 1010.2 hPa | 0 mm | - | 166 W/m² | - |
* Rain latest hour (hover to see other rain measurements)
** Current wind speed in m/s (hover to see current wind gust speed)